Time;durP1;ratioP1;P1;durP2;ratioP2;P2;SDS_P1;SDS_P2;PMS_P1;PMS_P2;Temp;Humidity;BMP_temperature;BMP_pressure;BME280_temperature;BME280_humidity;BME280_pressure;Samples;Min_cycle;Max_cycle;Signal;HPM_P1;HPM_P2
2022/02/28 00:02:28;;;;;;;12.57;4.32;;;9.50;43.20;;;;;;6262555;28;20130;-69
2022/02/28 00:05:30;;;;;;;9.10;3.60;;;9.50;43.30;;;;;;6263620;28;20037;-69
2022/02/28 00:08:31;;;;;;;7.22;3.30;;;9.40;43.30;;;;;;6262769;28;20102;-70
2022/02/28 00:11:32;;;;;;;10.75;4.55;;;9.50;43.40;;;;;;6255286;28;20116;-68
2022/02/28 00:14:33;;;;;;;7.80;3.90;;;9.40;43.40;;;;;;6261753;28;20359;-68
2022/02/28 00:17:34;;;;;;;7.32;3.72;;;9.40;43.60;;;;;;6261853;28;20037;-68
2022/02/28 00:20:35;;;;;;;12.98;4.40;;;9.30;43.70;;;;;;6270949;28;20064;-68
2022/02/28 00:23:36;;;;;;;8.48;3.72;;;9.30;44.00;;;;;;6235514;28;20100;-68
2022/02/28 00:26:37;;;;;;;9.38;4.55;;;9.30;44.20;;;;;;6238109;28;20046;-69
2022/02/28 00:29:38;;;;;;;9.82;4.50;;;9.20;44.90;;;;;;6245699;28;20040;-69
2022/02/28 00:32:39;;;;;;;12.80;4.45;;;9.20;44.40;;;;;;6249886;28;20048;-69
2022/02/28 00:35:42;;;;;;;8.57;3.53;;;9.20;44.60;;;;;;6269057;28;20033;-70
2022/02/28 00:38:43;;;;;;;10.55;3.28;;;9.20;44.80;;;;;;6260617;28;20120;-69
2022/02/28 00:41:44;;;;;;;11.32;4.40;;;9.20;45.00;;;;;;6260876;28;20044;-70
2022/02/28 00:44:45;;;;;;;7.45;4.30;;;9.10;45.10;;;;;;6263187;28;20060;-69
2022/02/28 00:47:46;;;;;;;11.48;4.25;;;9.10;45.20;;;;;;6241730;28;20045;-68
2022/02/28 00:50:47;;;;;;;12.10;4.43;;;9.10;45.30;;;;;;6258561;28;20417;-68
2022/02/28 00:53:48;;;;;;;8.85;4.07;;;9.10;45.50;;;;;;6269553;28;20086;-69
2022/02/28 00:56:49;;;;;;;11.25;3.90;;;9.10;45.60;;;;;;6242730;28;20052;-67
2022/02/28 00:59:50;;;;;;;11.45;4.30;;;9.10;45.60;;;;;;6260274;28;20082;-70
2022/02/28 01:02:51;;;;;;;9.95;4.47;;;9.00;45.60;;;;;;6258272;28;20090;-68
2022/02/28 01:05:53;;;;;;;9.05;3.90;;;9.00;45.60;;;;;;6255809;28;20045;-68
2022/02/28 01:08:54;;;;;;;8.93;3.70;;;8.90;45.80;;;;;;6268571;28;20055;-68
2022/02/28 01:11:55;;;;;;;10.63;4.60;;;8.90;46.00;;;;;;6264610;28;20356;-68
2022/02/28 01:14:55;;;;;;;12.18;4.47;;;8.80;46.00;;;;;;6259292;28;20042;-68
2022/02/28 01:17:56;;;;;;;9.30;4.15;;;8.80;46.10;;;;;;6248187;28;20034;-69
2022/02/28 01:20:58;;;;;;;7.63;3.53;;;8.80;46.20;;;;;;6245113;28;20092;-69
2022/02/28 01:23:59;;;;;;;7.32;3.40;;;8.80;46.30;;;;;;6264563;28;20044;-69
2022/02/28 01:27:00;;;;;;;13.95;3.95;;;8.70;46.30;;;;;;6269151;28;20466;-68
2022/02/28 01:30:01;;;;;;;10.38;3.90;;;8.70;46.40;;;;;;6267527;28;20029;-68
2022/02/28 01:33:02;;;;;;;9.32;4.47;;;8.70;46.40;;;;;;6258165;28;20052;-68
2022/02/28 01:36:03;;;;;;;8.02;4.20;;;8.70;46.40;;;;;;6257149;28;20455;-68
2022/02/28 01:39:05;;;;;;;13.20;4.40;;;8.80;46.40;;;;;;6269343;28;20488;-68
2022/02/28 01:42:05;;;;;;;8.63;4.30;;;8.80;46.30;;;;;;6257689;28;20037;-68
2022/02/28 01:45:21;;;;;;;10.10;4.07;;;8.80;46.30;;;;;;6260237;28;20530;-69
2022/02/28 01:48:22;;;;;;;15.18;4.93;;;8.80;46.40;;;;;;6262691;28;20035;-68
2022/02/28 01:51:24;;;;;;;12.20;4.40;;;8.80;46.50;;;;;;6257973;28;20033;-68
2022/02/28 01:54:26;;;;;;;13.35;4.43;;;8.70;46.50;;;;;;6251688;28;20030;-68
2022/02/28 01:57:27;;;;;;;14.02;3.85;;;8.70;46.80;;;;;;6235470;28;20061;-68
2022/02/28 02:00:31;;;;;;;12.02;4.20;;;8.60;46.80;;;;;;6246117;28;20044;-68
2022/02/28 02:03:32;;;;;;;7.63;3.55;;;8.60;46.90;;;;;;6256484;28;20073;-68
2022/02/28 02:06:36;;;;;;;9.40;3.33;;;8.50;47.10;;;;;;6255365;28;20042;-69
2022/02/28 02:09:38;;;;;;;7.75;3.85;;;8.50;47.20;;;;;;6237906;28;20040;-68
2022/02/28 02:12:42;;;;;;;7.82;3.28;;;8.40;47.30;;;;;;6241408;28;20175;-68
2022/02/28 02:15:43;;;;;;;13.10;3.78;;;8.40;47.50;;;;;;6250432;28;20095;-68
2022/02/28 02:18:44;;;;;;;9.82;3.35;;;8.30;47.60;;;;;;6256595;28;20045;-68
2022/02/28 02:21:45;;;;;;;11.43;3.95;;;8.30;47.80;;;;;;6271211;28;20067;-68
2022/02/28 02:24:49;;;;;;;7.80;3.50;;;8.30;47.90;;;;;;6258375;28;20455;-69
2022/02/28 02:27:50;;;;;;;13.18;3.85;;;8.30;47.90;;;;;;6252474;28;20037;-68
2022/02/28 02:30:56;;;;;;;13.23;3.90;;;8.30;48.00;;;;;;6232691;28;20577;-68
2022/02/28 02:33:58;;;;;;;10.80;3.45;;;8.30;48.10;;;;;;6247084;28;20365;-68
2022/02/28 02:36:59;;;;;;;5.40;2.33;;;8.30;48.10;;;;;;6260804;28;20419;-68
2022/02/28 02:40:01;;;;;;;7.20;2.80;;;8.20;48.00;;;;;;6237837;28;20044;-69
2022/02/28 02:43:02;;;;;;;8.90;2.65;;;8.20;48.00;;;;;;6264574;28;20029;-68
2022/02/28 02:46:04;;;;;;;4.60;2.55;;;8.10;48.00;;;;;;6254010;28;20037;-68
2022/02/28 02:49:05;;;;;;;7.03;2.85;;;8.10;48.10;;;;;;6258328;28;20369;-68
2022/02/28 02:52:06;;;;;;;4.18;2.33;;;8.00;48.20;;;;;;6249235;28;20033;-68
2022/02/28 02:55:09;;;;;;;7.50;2.63;;;7.90;48.30;;;;;;6246796;28;20072;-68
2022/02/28 02:58:13;;;;;;;15.07;4.28;;;7.90;48.40;;;;;;6240998;28;20045;-68
2022/02/28 03:01:15;;;;;;;6.32;3.17;;;7.80;48.50;;;;;;6256212;28;20045;-68
2022/02/28 03:04:16;;;;;;;10.95;3.95;;;7.80;48.70;;;;;;6260508;28;20064;-68
2022/02/28 03:07:19;;;;;;;7.40;2.92;;;7.80;48.80;;;;;;6264534;28;20132;-68
2022/02/28 03:10:22;;;;;;;8.98;3.40;;;7.80;48.90;;;;;;6249996;28;20045;-68
2022/02/28 03:13:24;;;;;;;9.80;4.05;;;7.80;48.90;;;;;;6257109;28;20049;-69
2022/02/28 03:16:27;;;;;;;7.07;3.40;;;7.80;49.10;;;;;;6259108;28;20375;-69
2022/02/28 03:19:28;;;;;;;9.43;3.50;;;7.80;49.20;;;;;;6261458;28;20048;-69
2022/02/28 03:22:29;;;;;;;13.57;3.78;;;7.80;49.40;;;;;;6259352;28;20044;-69
2022/02/28 03:25:30;;;;;;;9.90;3.28;;;7.70;49.40;;;;;;6257195;28;20038;-69
2022/02/28 03:28:35;;;;;;;7.70;3.70;;;7.70;49.40;;;;;;6258581;28;20051;-69
2022/02/28 03:31:37;;;;;;;8.18;2.95;;;7.60;49.50;;;;;;6268062;28;20037;-68
2022/02/28 03:34:38;;;;;;;6.53;2.83;;;7.60;49.50;;;;;;6271555;28;20029;-68
2022/02/28 03:37:39;;;;;;;5.55;3.10;;;7.50;49.50;;;;;;6238069;28;20072;-69
2022/02/28 03:40:44;;;;;;;11.25;3.25;;;7.50;49.60;;;;;;6259896;28;20037;-68
2022/02/28 03:43:46;;;;;;;6.25;3.03;;;7.40;49.70;;;;;;6258352;28;20033;-68
2022/02/28 03:46:53;;;;;;;9.95;3.42;;;7.40;49.80;;;;;;6264218;28;20033;-69
2022/02/28 03:50:00;;;;;;;7.57;2.97;;;7.40;49.90;;;;;;6256086;28;20358;-69
2022/02/28 03:53:06;;;;;;;11.75;3.53;;;7.40;49.90;;;;;;6260729;28;20141;-69
2022/02/28 03:56:11;;;;;;;7.93;3.42;;;7.30;49.80;;;;;;6250972;28;20061;-69
2022/02/28 03:59:12;;;;;;;7.72;3.33;;;7.30;49.90;;;;;;6261543;28;20055;-68
2022/02/28 04:02:14;;;;;;;6.57;3.03;;;7.30;50.00;;;;;;6255070;28;20480;-69
2022/02/28 04:05:19;;;;;;;7.65;2.95;;;7.40;50.10;;;;;;6214222;28;20038;-69
2022/02/28 04:08:22;;;;;;;6.07;2.70;;;7.40;50.10;;;;;;6237249;28;20116;-69
2022/02/28 04:11:23;;;;;;;7.38;2.58;;;7.40;50.10;;;;;;6235648;28;20109;-69
2022/02/28 04:14:24;;;;;;;4.25;2.25;;;7.30;50.20;;;;;;6228126;28;20107;-69
2022/02/28 04:17:25;;;;;;;14.85;3.38;;;7.30;50.30;;;;;;6255554;28;20025;-69
2022/02/28 04:20:26;;;;;;;8.52;3.20;;;7.20;50.30;;;;;;6259760;28;20107;-68
2022/02/28 04:23:27;;;;;;;5.43;2.85;;;7.20;50.40;;;;;;6268087;28;20021;-69
2022/02/28 04:26:28;;;;;;;9.40;2.50;;;7.10;50.50;;;;;;6260282;28;20049;-69
2022/02/28 04:29:31;;;;;;;7.32;3.28;;;7.10;50.60;;;;;;6259733;28;20033;-69
2022/02/28 04:32:41;;;;;;;5.07;2.60;;;7.10;50.70;;;;;;6238291;28;20038;-68
2022/02/28 04:35:44;;;;;;;12.38;3.05;;;7.10;50.80;;;;;;6237301;28;20037;-69
2022/02/28 04:38:44;;;;;;;11.13;3.17;;;7.00;50.80;;;;;;6241535;28;20034;-69
2022/02/28 04:41:46;;;;;;;7.22;2.92;;;7.00;50.80;;;;;;6232362;28;20066;-69
2022/02/28 04:44:48;;;;;;;9.23;2.85;;;7.00;50.80;;;;;;6234962;28;20037;-69
2022/02/28 04:47:49;;;;;;;8.13;2.53;;;6.90;50.80;;;;;;6234079;28;20040;-70
2022/02/28 04:51:08;;;;;;;6.72;2.67;;;6.90;50.90;;;;;;6237234;28;20034;-69
2022/02/28 04:54:10;;;;;;;7.85;3.28;;;6.80;51.10;;;;;;6247905;28;20037;-69
2022/02/28 04:57:11;;;;;;;7.15;3.45;;;6.80;51.20;;;;;;6240720;28;20367;-68
2022/02/28 05:00:14;;;;;;;6.70;3.00;;;6.80;51.30;;;;;;6257300;28;20061;-69
2022/02/28 05:03:17;;;;;;;10.35;3.45;;;6.80;51.30;;;;;;6269477;28;20029;-69
2022/02/28 05:06:19;;;;;;;9.70;3.30;;;6.80;51.20;;;;;;6262740;28;20055;-69
2022/02/28 05:09:26;;;;;;;6.25;3.42;;;6.80;51.20;;;;;;6246665;28;20037;-69
2022/02/28 05:12:27;;;;;;;7.22;3.47;;;6.70;51.20;;;;;;6251392;28;20037;-68
2022/02/28 05:15:28;;;;;;;17.15;4.00;;;6.70;51.40;;;;;;6256937;28;20029;-69
2022/02/28 05:18:29;;;;;;;5.10;2.92;;;6.60;51.70;;;;;;6242787;28;20096;-69
2022/02/28 05:21:30;;;;;;;7.57;3.40;;;6.50;51.80;;;;;;6219230;28;20029;-68
2022/02/28 05:24:32;;;;;;;8.15;3.17;;;6.50;52.00;;;;;;6238753;28;20048;-68
2022/02/28 05:27:42;;;;;;;10.90;3.40;;;6.40;52.20;;;;;;6223456;28;20462;-68
2022/02/28 05:30:47;;;;;;;4.85;3.15;;;6.40;52.40;;;;;;6240491;28;20352;-68
2022/02/28 05:33:48;;;;;;;8.70;3.40;;;6.40;52.50;;;;;;6258406;28;20036;-68
2022/02/28 05:36:49;;;;;;;11.60;3.33;;;6.40;52.50;;;;;;6257248;28;20114;-68
2022/02/28 05:40:13;;;;;;;22.02;3.28;;;6.40;52.50;;;;;;6268875;28;20496;-68
2022/02/28 05:43:16;;;;;;;9.70;4.22;;;6.40;52.50;;;;;;6263548;28;20033;-68
2022/02/28 05:46:17;;;;;;;12.30;3.78;;;6.50;52.40;;;;;;6263152;28;20544;-69
2022/02/28 05:49:41;;;;;;;7.97;3.10;;;6.40;52.30;;;;;;6254970;28;20061;-69
2022/02/28 05:52:45;;;;;;;5.38;2.97;;;6.50;52.20;;;;;;6247479;28;20071;-69
2022/02/28 05:55:47;;;;;;;10.18;3.97;;;6.50;52.20;;;;;;6222272;28;20099;-70
2022/02/28 05:58:48;;;;;;;9.30;4.22;;;6.50;52.20;;;;;;6228283;28;20041;-68
2022/02/28 06:01:49;;;;;;;4.82;2.72;;;6.50;52.20;;;;;;6219351;28;20050;-69
2022/02/28 06:04:49;;;;;;;9.35;3.72;;;6.50;52.20;;;;;;6233760;28;20053;-68
2022/02/28 06:07:50;;;;;;;11.05;4.82;;;6.60;52.20;;;;;;6237806;28;20045;-68
2022/02/28 06:10:51;;;;;;;15.68;4.35;;;6.60;52.30;;;;;;6232028;28;20085;-68
2022/02/28 06:13:52;;;;;;;11.75;4.32;;;6.60;52.30;;;;;;6229249;28;20034;-68
2022/02/28 06:16:53;;;;;;;10.23;3.38;;;6.60;52.20;;;;;;6227163;28;20045;-71
2022/02/28 06:19:55;;;;;;;6.63;3.83;;;6.60;52.10;;;;;;6227032;28;20051;-69
2022/02/28 06:22:56;;;;;;;7.20;3.15;;;6.70;52.10;;;;;;6215779;28;20031;-69
2022/02/28 06:25:57;;;;;;;18.20;3.90;;;6.70;52.10;;;;;;6250796;28;20385;-71
2022/02/28 06:28:58;;;;;;;10.65;3.70;;;6.70;52.10;;;;;;6253189;28;20029;-71
2022/02/28 06:31:58;;;;;;;12.75;5.22;;;6.70;52.00;;;;;;6259299;28;20120;-69
2022/02/28 06:35:00;;;;;;;8.30;4.47;;;6.70;52.10;;;;;;6257749;28;20416;-69
2022/02/28 06:38:00;;;;;;;11.13;4.63;;;6.70;52.20;;;;;;6263057;28;20151;-70
2022/02/28 06:41:01;;;;;;;11.20;4.53;;;6.60;52.10;;;;;;6268138;28;20049;-70
2022/02/28 06:44:05;;;;;;;8.18;4.18;;;6.50;52.20;;;;;;6254521;28;20358;-68
2022/02/28 06:47:06;;;;;;;8.48;3.97;;;6.50;52.30;;;;;;6263708;28;20045;-70
2022/02/28 06:50:08;;;;;;;7.32;3.72;;;6.50;52.40;;;;;;6253681;28;20427;-69
2022/02/28 06:53:09;;;;;;;9.02;4.57;;;6.40;52.50;;;;;;6254212;28;20374;-70
2022/02/28 06:56:10;;;;;;;12.68;4.53;;;6.40;52.60;;;;;;6253247;28;20045;-70
2022/02/28 06:59:11;;;;;;;8.75;3.53;;;6.40;52.60;;;;;;6253338;28;20044;-70
2022/02/28 07:02:13;;;;;;;7.72;3.70;;;6.30;52.70;;;;;;6244285;28;20063;-70
2022/02/28 07:05:20;;;;;;;14.48;3.97;;;6.30;52.80;;;;;;6256595;28;20530;-69
2022/02/28 07:08:22;;;;;;;8.70;3.63;;;6.30;53.10;;;;;;6257245;28;20051;-70
2022/02/28 07:11:23;;;;;;;6.95;3.72;;;6.30;53.20;;;;;;6254765;28;20029;-70
2022/02/28 07:14:24;;;;;;;10.38;3.47;;;6.40;53.30;;;;;;6257058;28;20099;-69
2022/02/28 07:17:27;;;;;;;11.10;3.88;;;6.40;53.00;;;;;;6234410;28;20090;-70
2022/02/28 07:20:28;;;;;;;13.10;4.75;;;6.50;52.90;;;;;;6254344;28;20091;-70
2022/02/28 07:23:29;;;;;;;8.45;4.60;;;6.50;52.90;;;;;;6260327;28;20347;-69
2022/02/28 07:26:30;;;;;;;13.98;4.45;;;6.60;52.90;;;;;;6257815;28;20043;-70
2022/02/28 07:29:31;;;;;;;12.00;5.07;;;6.60;52.80;;;;;;6234458;28;20044;-70
2022/02/28 07:32:31;;;;;;;12.88;5.18;;;6.70;52.90;;;;;;6264889;28;20410;-71
2022/02/28 07:35:33;;;;;;;15.50;4.95;;;6.80;52.70;;;;;;6245831;28;20485;-70
2022/02/28 07:38:34;;;;;;;6.82;3.83;;;6.80;52.60;;;;;;6238868;28;20043;-70
2022/02/28 07:41:35;;;;;;;15.20;4.43;;;6.90;52.50;;;;;;6227662;28;20029;-70
2022/02/28 07:44:36;;;;;;;11.55;4.65;;;7.00;52.40;;;;;;6234308;28;20044;-69
2022/02/28 07:47:37;;;;;;;15.82;4.03;;;7.00;52.30;;;;;;6268260;28;20378;-69
2022/02/28 07:50:38;;;;;;;14.60;5.15;;;7.10;52.20;;;;;;6271125;28;20863;-70
2022/02/28 07:53:39;;;;;;;13.32;4.15;;;7.20;52.00;;;;;;6265010;28;20029;-70
2022/02/28 07:56:40;;;;;;;9.93;3.70;;;7.30;51.70;;;;;;6258914;28;20107;-70
2022/02/28 07:59:41;;;;;;;11.55;3.92;;;7.40;51.50;;;;;;6259307;28;20040;-71
2022/02/28 08:02:42;;;;;;;12.13;3.67;;;7.40;51.40;;;;;;6261397;28;20037;-72
2022/02/28 08:05:43;;;;;;;7.57;3.65;;;7.50;51.30;;;;;;6262092;28;20071;-70
2022/02/28 08:08:44;;;;;;;14.50;4.45;;;7.60;51.10;;;;;;6260255;28;20375;-72
2022/02/28 08:11:45;;;;;;;14.75;4.07;;;7.60;50.80;;;;;;6269560;28;20100;-71
2022/02/28 08:14:46;;;;;;;10.15;3.65;;;7.60;50.50;;;;;;6261537;28;20057;-70
2022/02/28 08:17:47;;;;;;;13.20;3.75;;;7.70;50.40;;;;;;6262539;28;20037;-70
2022/02/28 08:20:48;;;;;;;7.20;3.45;;;7.80;50.20;;;;;;6238182;28;20068;-70
2022/02/28 08:23:49;;;;;;;13.63;3.83;;;7.80;50.00;;;;;;6257502;28;20052;-70
2022/02/28 08:26:50;;;;;;;7.72;3.80;;;7.90;49.90;;;;;;6260817;28;20037;-70
2022/02/28 08:29:51;;;;;;;12.73;3.50;;;8.00;49.60;;;;;;6263488;28;20354;-69
2022/02/28 08:32:54;;;;;;;6.63;3.15;;;8.10;49.10;;;;;;6255441;28;20033;-69
2022/02/28 08:35:55;;;;;;;14.55;3.38;;;8.20;48.70;;;;;;6264671;28;20033;-71
2022/02/28 08:38:55;;;;;;;7.53;3.78;;;8.20;48.40;;;;;;6234004;28;20033;-70
2022/02/28 08:41:56;;;;;;;17.83;4.38;;;8.30;48.10;;;;;;6259166;28;20095;-70
2022/02/28 08:44:57;;;;;;;7.25;3.28;;;8.40;48.00;;;;;;6253294;28;20044;-70
2022/02/28 08:47:59;;;;;;;8.90;3.83;;;8.40;47.80;;;;;;6227380;28;20042;-70
2022/02/28 08:51:00;;;;;;;9.35;3.13;;;8.60;47.60;;;;;;6264905;28;20044;-70
2022/02/28 08:54:01;;;;;;;7.05;2.97;;;8.70;47.20;;;;;;6261636;28;20033;-71
2022/02/28 08:57:03;;;;;;;16.58;3.88;;;8.90;46.60;;;;;;6258931;28;20033;-71
2022/02/28 09:00:09;;;;;;;9.98;3.88;;;9.00;46.50;;;;;;6260216;28;20042;-70
2022/02/28 09:03:10;;;;;;;13.30;4.40;;;9.20;46.40;;;;;;6256248;28;20052;-70
2022/02/28 09:06:11;;;;;;;10.27;3.00;;;9.30;45.90;;;;;;6230591;28;20072;-70
2022/02/28 09:09:12;;;;;;;7.78;4.00;;;9.40;45.60;;;;;;6252949;28;20361;-70
2022/02/28 09:12:13;;;;;;;6.43;3.45;;;9.50;45.20;;;;;;6247485;28;20370;-70
2022/02/28 09:15:15;;;;;;;7.28;3.70;;;9.70;44.90;;;;;;6255063;28;20358;-71
2022/02/28 09:18:16;;;;;;;11.38;3.33;;;9.60;44.80;;;;;;6263549;28;21410;-70
2022/02/28 09:21:17;;;;;;;12.18;3.88;;;9.70;44.80;;;;;;6244900;28;20045;-70
2022/02/28 09:24:18;;;;;;;9.70;3.40;;;9.90;44.50;;;;;;6223169;28;20113;-70
2022/02/28 09:27:19;;;;;;;7.75;3.05;;;10.00;44.40;;;;;;6237009;28;20037;-70
2022/02/28 09:30:20;;;;;;;6.55;3.53;;;10.10;43.80;;;;;;6250653;28;20038;-71
2022/02/28 09:33:27;;;;;;;9.88;2.78;;;10.10;43.30;;;;;;6234242;28;20029;-71
2022/02/28 09:36:29;;;;;;;9.30;3.35;;;10.20;43.30;;;;;;6261032;28;20025;-72
2022/02/28 09:39:30;;;;;;;9.02;3.05;;;10.20;43.40;;;;;;6259169;28;20041;-71
2022/02/28 09:42:48;;;;;;;9.70;3.90;;;10.30;43.20;;;;;;6252034;28;20034;-71
2022/02/28 09:46:09;;;;;;;7.53;3.10;;;10.40;42.90;;;;;;6259251;28;20389;-71
2022/02/28 09:49:28;;;;;;;10.73;3.50;;;10.50;42.80;;;;;;6257359;28;20037;-71
2022/02/28 09:52:48;;;;;;;6.85;3.15;;;10.50;42.60;;;;;;6253951;28;20116;-70
2022/02/28 09:56:08;;;;;;;9.63;2.80;;;10.70;42.40;;;;;;6249043;28;20045;-71
2022/02/28 09:59:41;;;;;;;7.35;2.50;;;10.80;42.20;;;;;;6250334;28;20041;-71
2022/02/28 10:02:46;;;;;;;12.15;4.07;;;11.00;41.70;;;;;;6235888;28;20064;-70
2022/02/28 10:05:47;;;;;;;10.68;3.88;;;11.00;41.30;;;;;;6251427;28;20065;-70
2022/02/28 10:08:51;;;;;;;10.07;2.58;;;11.10;40.50;;;;;;6266872;28;20017;-70
2022/02/28 10:11:53;;;;;;;8.73;3.88;;;11.20;39.50;;;;;;6260238;28;20048;-72
2022/02/28 10:15:02;;;;;;;8.70;3.92;;;11.20;38.50;;;;;;6258075;28;20021;-69
2022/02/28 10:18:05;;;;;;;12.15;5.55;;;11.20;38.30;;;;;;6249563;28;20021;-70
2022/02/28 10:21:06;;;;;;;12.00;5.82;;;11.20;38.10;;;;;;6258856;28;20029;-72
2022/02/28 10:24:09;;;;;;;9.20;3.72;;;11.30;38.50;;;;;;6257690;28;20048;-70
2022/02/28 10:27:24;;;;;;;5.93;2.05;;;11.40;38.50;;;;;;6246481;28;20051;-70
2022/02/28 10:31:00;;;;;;;5.53;2.72;;;11.40;38.30;;;;;;6258766;28;20037;-71
2022/02/28 10:34:22;;;;;;;5.50;2.40;;;11.60;38.00;;;;;;6248296;28;20467;-74
2022/02/28 10:37:46;;;;;;;7.28;2.33;;;12.00;37.50;;;;;;6262513;28;20045;-71
2022/02/28 10:40:46;;;;;;;11.27;4.72;;;12.50;36.80;;;;;;6260383;28;20041;-72
2022/02/28 10:43:51;;;;;;;13.93;6.03;;;12.90;35.50;;;;;;6243762;28;20052;-71
2022/02/28 10:46:52;;;;;;;8.75;3.08;;;13.10;34.60;;;;;;6242710;28;20388;-72
2022/02/28 10:49:58;;;;;;;7.95;3.30;;;13.30;34.10;;;;;;6238569;28;20116;-71
2022/02/28 10:53:00;;;;;;;10.57;4.40;;;13.60;34.10;;;;;;6251162;28;20038;-71
2022/02/28 10:56:00;;;;;;;10.05;4.75;;;13.80;33.70;;;;;;6255261;28;20040;-72
2022/02/28 10:59:04;;;;;;;10.32;3.10;;;14.00;32.30;;;;;;6263306;28;20029;-70
2022/02/28 11:02:06;;;;;;;4.45;2.20;;;14.10;32.30;;;;;;6248938;28;20418;-71
2022/02/28 11:05:13;;;;;;;4.80;2.33;;;14.20;31.40;;;;;;6255540;28;20127;-71
2022/02/28 11:08:21;;;;;;;7.07;2.75;;;14.40;30.90;;;;;;6257573;28;20051;-71
2022/02/28 11:11:23;;;;;;;13.45;5.32;;;14.50;30.50;;;;;;6256225;28;20033;-71
2022/02/28 11:14:24;;;;;;;18.35;4.03;;;14.50;30.40;;;;;;6226029;28;20130;-71
2022/02/28 11:17:31;;;;;;;6.95;3.60;;;14.70;31.00;;;;;;6238460;28;20029;-71
2022/02/28 11:20:32;;;;;;;11.45;4.63;;;14.90;30.50;;;;;;6240946;28;20037;-71
2022/02/28 11:23:44;;;;;;;15.45;5.28;;;15.10;29.80;;;;;;6252410;28;20381;-71
2022/02/28 11:26:45;;;;;;;8.52;3.17;;;15.30;29.70;;;;;;6254337;28;20052;-72
2022/02/28 11:29:52;;;;;;;9.60;4.13;;;15.60;28.60;;;;;;6242407;28;20354;-72
2022/02/28 11:33:07;;;;;;;19.67;8.15;;;15.80;28.10;;;;;;6255468;28;20061;-71
2022/02/28 11:36:08;;;;;;;16.60;6.30;;;16.10;28.00;;;;;;6265014;28;20041;-72
2022/02/28 11:39:11;;;;;;;10.00;4.88;;;16.50;27.40;;;;;;6260816;28;20091;-72
2022/02/28 11:42:13;;;;;;;4.07;2.17;;;17.00;27.20;;;;;;6260502;28;20030;-72
2022/02/28 11:45:21;;;;;;;12.43;5.40;;;17.50;26.10;;;;;;6257318;28;20041;-71
2022/02/28 11:48:34;;;;;;;6.40;2.38;;;17.90;25.10;;;;;;6256579;28;20036;-71
2022/02/28 11:51:38;;;;;;;5.60;3.13;;;18.20;25.20;;;;;;6255822;28;20060;-72
2022/02/28 11:54:42;;;;;;;8.70;2.88;;;18.70;24.30;;;;;;6261010;28;20033;-72
2022/02/28 11:58:00;;;;;;;7.53;2.63;;;19.10;24.00;;;;;;6257623;28;20115;-72
2022/02/28 12:01:13;;;;;;;4.68;2.00;;;19.60;23.50;;;;;;6259847;28;20040;-73
2022/02/28 12:04:17;;;;;;;11.60;2.50;;;20.20;23.30;;;;;;6250792;28;20114;-72
2022/02/28 12:07:28;;;;;;;9.00;2.92;;;20.80;22.70;;;;;;6254438;28;20300;-73
2022/02/28 12:10:31;;;;;;;8.73;3.30;;;21.30;22.10;;;;;;6254911;28;20075;-71
2022/02/28 12:13:36;;;;;;;10.43;3.22;;;21.70;21.40;;;;;;6238801;28;20121;-72
2022/02/28 12:20:37;;;;;;;5.85;3.33;;;22.30;19.80;;;;;;6261135;28;20033;-72
2022/02/28 12:23:46;;;;;;;6.00;2.05;;;22.20;19.80;;;;;;6261085;28;20037;-72
2022/02/28 12:27:16;;;;;;;8.45;3.28;;;22.50;19.80;;;;;;6254760;28;20343;-73
2022/02/28 12:30:36;;;;;;;5.05;2.60;;;22.50;19.60;;;;;;6231350;28;20108;-73
2022/02/28 12:33:40;;;;;;;5.97;2.53;;;22.50;19.70;;;;;;6237488;28;20037;-73
2022/02/28 12:36:44;;;;;;;5.60;2.08;;;22.80;19.80;;;;;;6257116;28;20109;-71
2022/02/28 12:39:52;;;;;;;10.98;2.50;;;23.10;19.80;;;;;;6251584;28;20116;-71
2022/02/28 12:42:55;;;;;;;6.47;2.25;;;23.60;20.00;;;;;;6257610;28;20068;-71
2022/02/28 12:45:59;;;;;;;4.53;2.30;;;24.10;19.70;;;;;;6245044;28;20036;-70
2022/02/28 12:49:00;;;;;;;4.07;2.35;;;24.50;19.00;;;;;;6259187;28;20075;-72
2022/02/28 12:52:01;;;;;;;5.47;2.30;;;24.70;18.80;;;;;;6253499;28;20033;-71
2022/02/28 12:55:04;;;;;;;4.20;2.22;;;25.00;18.80;;;;;;6212772;28;20122;-71
2022/02/28 12:58:13;;;;;;;4.78;2.55;;;25.20;18.80;;;;;;6232006;28;20526;-71
2022/02/28 13:01:16;;;;;;;7.85;2.40;;;24.70;18.50;;;;;;6239886;28;20485;-71
2022/02/28 13:04:18;;;;;;;10.73;2.40;;;23.80;19.10;;;;;;6249537;28;20052;-71
2022/02/28 13:07:18;;;;;;;6.07;2.25;;;23.00;19.50;;;;;;6257201;28;20041;-71
2022/02/28 13:10:19;;;;;;;5.20;2.47;;;22.20;20.10;;;;;;6260685;28;20048;-71
2022/02/28 13:13:24;;;;;;;11.25;2.30;;;21.50;20.60;;;;;;6266593;28;20060;-72
2022/02/28 13:16:27;;;;;;;7.43;2.70;;;21.00;21.10;;;;;;6254923;28;20373;-71
2022/02/28 13:19:30;;;;;;;3.50;2.35;;;20.60;21.40;;;;;;6251715;28;20083;-71
2022/02/28 13:22:30;;;;;;;4.82;2.00;;;20.20;21.70;;;;;;6259633;28;20369;-72
2022/02/28 13:25:31;;;;;;;5.47;2.00;;;19.80;21.60;;;;;;6253581;28;20124;-72
2022/02/28 13:28:37;;;;;;;3.67;1.98;;;19.40;21.90;;;;;;6259394;28;20127;-72
2022/02/28 13:32:00;;;;;;;7.43;2.10;;;19.00;22.10;;;;;;6259653;28;20473;-70
2022/02/28 13:35:01;;;;;;;4.75;1.77;;;18.70;22.40;;;;;;6237883;28;20112;-71
2022/02/28 13:38:02;;;;;;;3.72;2.05;;;18.50;22.70;;;;;;6233634;28;20344;-70
2022/02/28 13:41:07;;;;;;;2.40;1.52;;;18.20;22.70;;;;;;6230571;28;20040;-71
2022/02/28 13:44:13;;;;;;;5.63;1.77;;;18.00;22.90;;;;;;6231286;28;20124;-71
2022/02/28 13:47:23;;;;;;;8.18;1.67;;;17.70;23.10;;;;;;6225824;28;20405;-71
2022/02/28 13:50:31;;;;;;;6.05;1.80;;;17.50;23.20;;;;;;6234298;28;20136;-71
2022/02/28 13:53:43;;;;;;;7.38;1.92;;;17.30;23.30;;;;;;6229047;28;20045;-71
2022/02/28 13:56:44;;;;;;;4.43;2.08;;;17.10;23.30;;;;;;6229989;28;20509;-71
2022/02/28 13:59:45;;;;;;;5.32;1.67;;;17.00;23.20;;;;;;6235819;28;20169;-71
2022/02/28 14:02:56;;;;;;;2.55;1.48;;;17.00;23.50;;;;;;6233205;28;20105;-71
2022/02/28 14:05:59;;;;;;;3.25;1.58;;;16.90;23.50;;;;;;6232750;28;20053;-71
2022/02/28 14:09:00;;;;;;;4.85;2.22;;;16.80;23.40;;;;;;6239261;28;20041;-72
2022/02/28 14:12:02;;;;;;;5.82;1.90;;;16.80;23.50;;;;;;6232281;28;20091;-71
2022/02/28 14:15:08;;;;;;;3.30;1.73;;;16.80;23.70;;;;;;6212467;28;20065;-71
2022/02/28 14:18:10;;;;;;;6.78;1.70;;;16.70;24.20;;;;;;6233599;28;20223;-71
2022/02/28 14:21:11;;;;;;;4.78;1.83;;;16.70;23.90;;;;;;6234625;28;20060;-71
2022/02/28 14:24:31;;;;;;;6.97;1.75;;;16.80;23.90;;;;;;6243369;28;20041;-71
2022/02/28 14:27:52;;;;;;;4.10;1.70;;;16.90;24.00;;;;;;6247846;28;20049;-72
2022/02/28 14:31:15;;;;;;;2.90;1.77;;;16.70;24.10;;;;;;6254819;28;20045;-71
2022/02/28 14:34:17;;;;;;;3.20;1.98;;;16.70;24.10;;;;;;6262449;28;20044;-71
2022/02/28 14:37:18;;;;;;;8.68;2.15;;;16.70;24.20;;;;;;6252059;28;20056;-71
2022/02/28 14:40:22;;;;;;;4.85;2.03;;;16.60;24.20;;;;;;6257448;28;20034;-71
2022/02/28 14:43:23;;;;;;;6.93;1.90;;;16.60;24.20;;;;;;6255236;28;20038;-71
2022/02/28 14:46:24;;;;;;;6.85;1.88;;;16.60;24.30;;;;;;6254723;28;20064;-71
2022/02/28 14:49:25;;;;;;;2.70;1.50;;;16.60;24.40;;;;;;6238423;28;20374;-71
2022/02/28 14:52:26;;;;;;;8.68;2.10;;;16.60;24.50;;;;;;6235783;28;20517;-71
2022/02/28 14:55:27;;;;;;;6.28;1.80;;;16.60;24.60;;;;;;6218396;28;20144;-71
2022/02/28 14:58:28;;;;;;;8.35;2.40;;;16.60;24.60;;;;;;6254689;28;20037;-71
2022/02/28 15:01:30;;;;;;;3.05;1.70;;;16.60;24.70;;;;;;6259032;28;20087;-71
2022/02/28 15:04:31;;;;;;;5.60;1.77;;;16.60;24.80;;;;;;6234967;28;20045;-72
2022/02/28 15:07:32;;;;;;;8.15;2.60;;;16.60;24.70;;;;;;6252345;28;20037;-71
2022/02/28 15:10:33;;;;;;;8.68;2.05;;;16.70;24.70;;;;;;6256650;28;20110;-71
2022/02/28 15:13:35;;;;;;;5.35;2.33;;;16.60;24.70;;;;;;6253856;28;20037;-72
2022/02/28 15:16:37;;;;;;;6.43;2.28;;;16.60;24.60;;;;;;6254152;28;20501;-71
2022/02/28 15:19:38;;;;;;;7.22;2.63;;;16.60;24.60;;;;;;6227947;28;20038;-71
2022/02/28 15:22:39;;;;;;;11.93;2.53;;;16.60;24.40;;;;;;6253466;28;20044;-71
2022/02/28 15:25:40;;;;;;;8.43;2.45;;;16.50;24.40;;;;;;6240477;28;20033;-72
2022/02/28 15:28:41;;;;;;;6.88;2.38;;;16.50;24.60;;;;;;6262142;28;20036;-71
2022/02/28 15:31:42;;;;;;;3.75;1.95;;;16.50;24.60;;;;;;6263417;28;20025;-71
2022/02/28 15:34:42;;;;;;;5.50;2.20;;;16.50;24.70;;;;;;6253098;28;20395;-73
2022/02/28 15:37:43;;;;;;;4.72;2.25;;;16.50;24.80;;;;;;6254890;28;20033;-71
2022/02/28 15:40:45;;;;;;;7.93;2.40;;;16.50;24.90;;;;;;6251948;28;20045;-71
2022/02/28 15:43:46;;;;;;;7.38;2.40;;;16.40;25.10;;;;;;6271818;28;20438;-70
2022/02/28 15:46:49;;;;;;;8.00;2.35;;;16.40;25.10;;;;;;6271482;28;20044;-71
2022/02/28 15:49:50;;;;;;;6.15;2.35;;;16.40;25.20;;;;;;6272258;28;20037;-72
2022/02/28 15:52:53;;;;;;;7.80;2.35;;;16.40;25.80;;;;;;6271292;28;20036;-70
2022/02/28 15:55:54;;;;;;;3.88;2.00;;;16.40;25.50;;;;;;6269712;28;20051;-71
2022/02/28 15:58:56;;;;;;;5.13;2.05;;;16.40;25.60;;;;;;6270877;28;20103;-71
2022/02/28 16:01:59;;;;;;;5.78;2.33;;;16.40;25.70;;;;;;6271798;28;20091;-71
2022/02/28 16:05:00;;;;;;;4.20;2.08;;;16.40;25.80;;;;;;6273692;28;20067;-71